»·PEaware :: N81041 KLGB-KSNA

N81041 :: KLGB-KSNA

FLIGHT INFORMATION

Flight Status: Arrived
Operator: Privately registered:
United States
More flights under this callsign
Pilot: John C. (12173)
Aircraft: GRUMMAN AERO AA5 CHEETAH TIGER
(AA5)
More flights by this aircraft type
Origin: KLGB Long Beach
United States
Destination: KSNA John Wayne-Orange Co
United States
More flights between these airports :: More routes between these airports
Route: +SLI
File this flight plan on PilotEdge
Remarks:
Altitude:
(Current/Filed)
5,000ft
Speed:
(Current/Filed)
130kts
Departed: 15-Feb-20 06:04 PM
Arrived: 15-Feb-20 06:41 PM
Distance/Time
Traveled:
16nm/0:37
Distance/Time
To Go:
Arrived

Flight Plot

Page will automatically refresh every two minutes.


Map Options




Map Legend


Flown Route
Filed Route
Departure Airport
Arrival Airport
Navaid (VOR, NDB)
Fix

Horizontal Profiles

Position Reports

Time Latitude Longitude Heading Altitude Ground
Speed
15-Feb-20 17:54 33.812559 -118.153578 89 41ft 0kts
15-Feb-20 17:55 33.812559 -118.153578 89 41ft 0kts
15-Feb-20 17:56 33.812559 -118.153578 89 41ft 0kts
15-Feb-20 17:57 33.812559 -118.153578 89 41ft 0kts
15-Feb-20 17:58 33.812559 -118.153578 89 41ft 0kts
15-Feb-20 17:59 33.813089 -118.150805 89 36ft 16kts
15-Feb-20 18:00 33.813076 -118.148682 91 35ft 5kts
15-Feb-20 18:01 33.813676 -118.147991 335 34ft 0kts
15-Feb-20 18:02 33.813703 -118.148008 330 34ft 1kts
15-Feb-20 18:03 33.813705 -118.153975 269 53ft 85kts
15-Feb-20 18:04 33.812447 -118.180272 237 1091ft 100kts
15-Feb-20 18:05 33.792690 -118.192565 206 2299ft 94kts
15-Feb-20 18:06 33.773092 -118.205577 209 3353ft 100kts
15-Feb-20 18:07 33.753058 -118.217939 207 4391ft 102kts
15-Feb-20 18:08 33.731698 -118.206347 86 3740ft 122kts
15-Feb-20 18:09 33.741822 -118.175239 63 3581ft 119kts
15-Feb-20 18:10 33.754590 -118.146763 67 3754ft 120kts
15-Feb-20 18:11 33.764318 -118.116850 67 3981ft 122kts
15-Feb-20 18:12 33.773398 -118.084822 70 4069ft 123kts
15-Feb-20 18:13 33.783509 -118.052690 62 4065ft 130kts
15-Feb-20 18:14 33.798982 -118.022864 60 4122ft 130kts
15-Feb-20 18:15 33.812194 -117.990583 62 4045ft 134kts
15-Feb-20 18:16 33.825017 -117.958566 64 3996ft 133kts
15-Feb-20 18:17 33.837129 -117.925168 67 3922ft 134kts
15-Feb-20 18:18 33.849804 -117.892756 65 3953ft 130kts
15-Feb-20 18:19 33.861311 -117.859707 68 3951ft 131kts
15-Feb-20 18:20 33.874202 -117.827494 69 3958ft 132kts
15-Feb-20 18:21 33.886469 -117.794774 62 3993ft 131kts
15-Feb-20 18:22 33.902280 -117.764384 60 4012ft 131kts
15-Feb-20 18:23 33.916525 -117.733053 64 4009ft 131kts
15-Feb-20 18:24 33.933988 -117.705071 28 3954ft 133kts
15-Feb-20 18:26 33.960352 -117.689505 27 3804ft 129kts
15-Feb-20 18:27 33.980277 -117.699641 257 3674ft 124kts
15-Feb-20 18:28 33.956425 -117.701764 155 3534ft 123kts
15-Feb-20 18:29 33.931626 -117.703272 207 3469ft 117kts
15-Feb-20 18:30 33.908375 -117.718686 214 3418ft 117kts
15-Feb-20 18:31 33.885672 -117.734887 210 3467ft 115kts
15-Feb-20 18:32 33.862359 -117.749846 209 3493ft 116kts
15-Feb-20 18:33 33.839121 -117.764985 208 3420ft 116kts
15-Feb-20 18:34 33.816019 -117.779422 207 3173ft 114kts
15-Feb-20 18:35 33.793125 -117.794002 206 2748ft 114kts
15-Feb-20 18:36 33.770090 -117.807851 209 2211ft 113kts
15-Feb-20 18:37 33.747783 -117.823102 209 1646ft 112kts
15-Feb-20 18:38 33.725238 -117.837231 211 1057ft 111kts
15-Feb-20 18:39 33.704084 -117.850937 211 571ft 97kts
15-Feb-20 18:40 33.687515 -117.861275 208 212ft 67kts
15-Feb-20 18:41 33.676255 -117.868414 207 46ft 38kts
15-Feb-20 18:42 33.670479 -117.872130 215 51ft 26kts
15-Feb-20 18:43 33.670425 -117.873848 291 51ft 4kts
15-Feb-20 18:44 33.669858 -117.874575 282 51ft 0kts
15-Feb-20 18:45 33.669858 -117.874575 282 51ft 0kts
15-Feb-20 18:46 33.669858 -117.874575 282 51ft 0kts

Navigation Log

Ident Type
Flight plan parsing failed, navigation log unavailable